sensor_id;sensor_type;location;lat;lon;timestamp;pressure;altitude;pressure_sealevel;temperature;humidity
12195;BME280;27023;42.680;23.132;2022-11-15T00:01:54;92642.06;;;4.70;100.00
12195;BME280;27023;42.680;23.132;2022-11-15T00:04:22;92644.44;;;4.80;100.00
12195;BME280;27023;42.680;23.132;2022-11-15T00:06:48;92639.75;;;4.68;100.00
12195;BME280;27023;42.680;23.132;2022-11-15T00:09:15;92636.53;;;4.71;100.00
12195;BME280;27023;42.680;23.132;2022-11-15T00:11:42;92645.34;;;4.98;100.00
12195;BME280;27023;42.680;23.132;2022-11-15T00:14:09;92639.41;;;4.84;100.00
12195;BME280;27023;42.680;23.132;2022-11-15T00:16:35;92644.00;;;4.64;100.00
12195;BME280;27023;42.680;23.132;2022-11-15T00:19:02;92638.28;;;4.76;100.00
12195;BME280;27023;42.680;23.132;2022-11-15T00:21:30;92646.13;;;4.98;100.00
12195;BME280;27023;42.680;23.132;2022-11-15T00:23:58;92640.00;;;5.25;100.00
12195;BME280;27023;42.680;23.132;2022-11-15T00:26:24;92642.75;;;5.20;100.00
12195;BME280;27023;42.680;23.132;2022-11-15T00:28:52;92638.88;;;4.95;100.00
12195;BME280;27023;42.680;23.132;2022-11-15T00:31:18;92642.94;;;5.24;100.00
12195;BME280;27023;42.680;23.132;2022-11-15T00:33:45;92638.47;;;5.02;100.00
12195;BME280;27023;42.680;23.132;2022-11-15T00:36:12;92636.91;;;4.78;100.00
12195;BME280;27023;42.680;23.132;2022-11-15T00:38:40;92636.69;;;4.89;100.00
12195;BME280;27023;42.680;23.132;2022-11-15T00:41:07;92637.97;;;5.00;100.00
12195;BME280;27023;42.680;23.132;2022-11-15T00:43:34;92637.63;;;5.15;100.00
12195;BME280;27023;42.680;23.132;2022-11-15T00:46:01;92634.66;;;5.08;100.00
12195;BME280;27023;42.680;23.132;2022-11-15T00:48:28;92630.06;;;4.69;100.00
12195;BME280;27023;42.680;23.132;2022-11-15T00:50:55;92627.00;;;4.89;100.00
12195;BME280;27023;42.680;23.132;2022-11-15T00:53:21;92629.91;;;4.88;100.00
12195;BME280;27023;42.680;23.132;2022-11-15T00:55:49;92621.72;;;4.81;100.00
12195;BME280;27023;42.680;23.132;2022-11-15T00:58:16;92620.56;;;4.51;100.00
12195;BME280;27023;42.680;23.132;2022-11-15T01:00:43;92618.59;;;4.56;100.00
12195;BME280;27023;42.680;23.132;2022-11-15T01:03:09;92618.25;;;4.35;100.00
12195;BME280;27023;42.680;23.132;2022-11-15T01:05:37;92617.75;;;4.47;100.00
12195;BME280;27023;42.680;23.132;2022-11-15T01:08:04;92621.22;;;4.56;100.00
12195;BME280;27023;42.680;23.132;2022-11-15T01:10:30;92619.59;;;4.46;100.00
12195;BME280;27023;42.680;23.132;2022-11-15T01:12:58;92615.81;;;4.39;100.00
12195;BME280;27023;42.680;23.132;2022-11-15T01:15:25;92631.06;;;4.59;100.00
12195;BME280;27023;42.680;23.132;2022-11-15T01:17:52;92625.31;;;4.71;100.00
12195;BME280;27023;42.680;23.132;2022-11-15T01:20:18;92639.13;;;4.49;100.00
12195;BME280;27023;42.680;23.132;2022-11-15T01:22:45;92625.91;;;4.32;100.00
12195;BME280;27023;42.680;23.132;2022-11-15T01:25:12;92624.47;;;4.26;100.00
12195;BME280;27023;42.680;23.132;2022-11-15T01:27:38;92621.63;;;4.36;100.00
12195;BME280;27023;42.680;23.132;2022-11-15T01:30:08;92613.09;;;4.44;100.00
12195;BME280;27023;42.680;23.132;2022-11-15T01:32:35;92607.22;;;4.38;100.00
12195;BME280;27023;42.680;23.132;2022-11-15T01:35:01;92610.06;;;4.28;100.00
12195;BME280;27023;42.680;23.132;2022-11-15T01:37:28;92607.56;;;4.59;100.00
12195;BME280;27023;42.680;23.132;2022-11-15T01:39:55;92606.50;;;4.83;100.00
12195;BME280;27023;42.680;23.132;2022-11-15T01:42:21;92603.97;;;4.91;100.00
12195;BME280;27023;42.680;23.132;2022-11-15T01:44:49;92604.13;;;4.95;100.00
12195;BME280;27023;42.680;23.132;2022-11-15T01:47:21;92604.50;;;4.57;100.00
12195;BME280;27023;42.680;23.132;2022-11-15T01:49:55;92608.34;;;4.82;100.00
12195;BME280;27023;42.680;23.132;2022-11-15T01:52:26;92602.59;;;4.71;100.00
12195;BME280;27023;42.680;23.132;2022-11-15T01:54:58;92599.50;;;4.47;100.00
12195;BME280;27023;42.680;23.132;2022-11-15T01:57:27;92604.91;;;4.51;100.00
12195;BME280;27023;42.680;23.132;2022-11-15T01:59:55;92602.59;;;4.71;100.00
12195;BME280;27023;42.680;23.132;2022-11-15T02:02:23;92603.31;;;4.86;100.00
12195;BME280;27023;42.680;23.132;2022-11-15T02:04:50;92608.94;;;4.57;100.00
12195;BME280;27023;42.680;23.132;2022-11-15T02:07:19;92604.72;;;4.47;100.00
12195;BME280;27023;42.680;23.132;2022-11-15T02:09:47;92604.50;;;4.57;100.00
12195;BME280;27023;42.680;23.132;2022-11-15T02:12:17;92603.53;;;4.53;100.00
12195;BME280;27023;42.680;23.132;2022-11-15T02:14:47;92599.28;;;4.43;100.00
12195;BME280;27023;42.680;23.132;2022-11-15T02:17:37;92593.81;;;4.31;100.00
12195;BME280;27023;42.680;23.132;2022-11-15T02:23:22;92589.72;;;4.53;100.00
12195;BME280;27023;42.680;23.132;2022-11-15T02:26:13;92590.00;;;4.51;100.00
12195;BME280;27023;42.680;23.132;2022-11-15T02:28:53;92581.91;;;4.39;100.00
12195;BME280;27023;42.680;23.132;2022-11-15T02:31:28;92581.31;;;4.42;100.00
12195;BME280;27023;42.680;23.132;2022-11-15T02:34:04;92579.69;;;4.46;100.00
12195;BME280;27023;42.680;23.132;2022-11-15T02:36:38;92588.72;;;4.62;100.00
12195;BME280;27023;42.680;23.132;2022-11-15T02:39:11;92580.63;;;4.50;100.00
12195;BME280;27023;42.680;23.132;2022-11-15T02:41:44;92579.03;;;4.63;100.00
12195;BME280;27023;42.680;23.132;2022-11-15T02:44:17;92581.81;;;4.66;100.00
12195;BME280;27023;42.680;23.132;2022-11-15T02:46:49;92582.66;;;4.53;100.00
12195;BME280;27023;42.680;23.132;2022-11-15T02:49:35;92581.78;;;4.44;100.00
12195;BME280;27023;42.680;23.132;2022-11-15T02:52:04;92587.59;;;4.41;100.00
12195;BME280;27023;42.680;23.132;2022-11-15T02:54:32;92587.41;;;4.51;100.00
12195;BME280;27023;42.680;23.132;2022-11-15T02:57:01;92596.25;;;4.86;100.00
12195;BME280;27023;42.680;23.132;2022-11-15T03:00:01;92585.88;;;4.72;100.00
12195;BME280;27023;42.680;23.132;2022-11-15T03:02:42;92591.91;;;4.59;100.00
12195;BME280;27023;42.680;23.132;2022-11-15T03:05:17;92581.09;;;4.52;100.00
12195;BME280;27023;42.680;23.132;2022-11-15T03:07:53;92584.06;;;4.59;100.00
12195;BME280;27023;42.680;23.132;2022-11-15T03:10:25;92582.28;;;4.46;100.00
12195;BME280;27023;42.680;23.132;2022-11-15T03:12:55;92574.06;;;4.39;100.00
12195;BME280;27023;42.680;23.132;2022-11-15T03:15:28;92574.41;;;4.24;100.00
12195;BME280;27023;42.680;23.132;2022-11-15T03:18:00;92574.50;;;4.19;100.00
12195;BME280;27023;42.680;23.132;2022-11-15T03:20:28;92578.38;;;4.21;100.00
12195;BME280;27023;42.680;23.132;2022-11-15T03:22:58;92574.34;;;4.51;100.00
12195;BME280;27023;42.680;23.132;2022-11-15T03:25:28;92569.31;;;4.55;100.00
12195;BME280;27023;42.680;23.132;2022-11-15T03:27:58;92565.88;;;4.32;100.00
12195;BME280;27023;42.680;23.132;2022-11-15T03:30:28;92565.31;;;4.21;100.00
12195;BME280;27023;42.680;23.132;2022-11-15T03:33:00;92569.44;;;4.36;100.00
12195;BME280;27023;42.680;23.132;2022-11-15T03:35:32;92555.31;;;4.37;100.00
12195;BME280;27023;42.680;23.132;2022-11-15T03:38:05;92557.78;;;4.20;100.00
12195;BME280;27023;42.680;23.132;2022-11-15T03:40:37;92556.38;;;4.36;100.00
12195;BME280;27023;42.680;23.132;2022-11-15T03:43:09;92553.88;;;4.31;100.00
12195;BME280;27023;42.680;23.132;2022-11-15T03:45:44;92545.03;;;4.18;100.00
12195;BME280;27023;42.680;23.132;2022-11-15T03:48:16;92557.69;;;4.25;100.00
12195;BME280;27023;42.680;23.132;2022-11-15T03:50:47;92550.88;;;4.01;100.00
12195;BME280;27023;42.680;23.132;2022-11-15T03:53:14;92550.59;;;4.03;100.00
12195;BME280;27023;42.680;23.132;2022-11-15T03:55:41;92544.03;;;3.92;100.00
12195;BME280;27023;42.680;23.132;2022-11-15T03:58:08;92547.47;;;4.14;100.00
12195;BME280;27023;42.680;23.132;2022-11-15T04:00:34;92539.78;;;4.32;100.00
12195;BME280;27023;42.680;23.132;2022-11-15T04:03:01;92542.44;;;4.18;100.00
12195;BME280;27023;42.680;23.132;2022-11-15T04:05:29;92541.19;;;4.15;100.00
12195;BME280;27023;42.680;23.132;2022-11-15T04:07:56;92551.03;;;4.19;100.00
12195;BME280;27023;42.680;23.132;2022-11-15T04:10:22;92540.00;;;4.22;100.00
12195;BME280;27023;42.680;23.132;2022-11-15T04:12:49;92536.31;;;4.23;100.00
12195;BME280;27023;42.680;23.132;2022-11-15T04:15:18;92543.44;;;4.31;100.00
12195;BME280;27023;42.680;23.132;2022-11-15T04:17:46;92539.88;;;4.63;100.00
12195;BME280;27023;42.680;23.132;2022-11-15T04:20:15;92542.41;;;4.76;100.00
12195;BME280;27023;42.680;23.132;2022-11-15T04:23:04;92536.81;;;4.25;100.00
12195;BME280;27023;42.680;23.132;2022-11-15T04:25:50;92541.38;;;4.19;100.00
12195;BME280;27023;42.680;23.132;2022-11-15T04:28:17;92541.63;;;3.95;100.00
12195;BME280;27023;42.680;23.132;2022-11-15T04:30:45;92538.59;;;4.02;100.00
12195;BME280;27023;42.680;23.132;2022-11-15T04:33:12;92533.00;;;4.31;100.00
12195;BME280;27023;42.680;23.132;2022-11-15T04:35:39;92532.03;;;4.04;100.00
12195;BME280;27023;42.680;23.132;2022-11-15T04:38:09;92530.53;;;3.90;100.00
12195;BME280;27023;42.680;23.132;2022-11-15T04:40:35;92536.00;;;4.02;100.00
12195;BME280;27023;42.680;23.132;2022-11-15T04:43:02;92546.69;;;3.78;100.00
12195;BME280;27023;42.680;23.132;2022-11-15T04:45:29;92535.44;;;3.91;100.00
12195;BME280;27023;42.680;23.132;2022-11-15T04:47:55;92539.53;;;4.20;100.00
12195;BME280;27023;42.680;23.132;2022-11-15T04:50:22;92542.56;;;4.35;100.00
12195;BME280;27023;42.680;23.132;2022-11-15T04:52:51;92544.56;;;4.16;100.00
12195;BME280;27023;42.680;23.132;2022-11-15T04:55:19;92543.59;;;3.76;100.00
12195;BME280;27023;42.680;23.132;2022-11-15T04:57:46;92549.94;;;3.56;100.00
12195;BME280;27023;42.680;23.132;2022-11-15T05:00:15;92547.34;;;3.42;100.00
12195;BME280;27023;42.680;23.132;2022-11-15T05:02:42;92545.13;;;3.49;100.00
12195;BME280;27023;42.680;23.132;2022-11-15T05:05:26;92537.22;;;3.55;100.00
12195;BME280;27023;42.680;23.132;2022-11-15T05:07:53;92536.53;;;3.63;100.00
12195;BME280;27023;42.680;23.132;2022-11-15T05:10:21;92541.28;;;3.47;100.00
12195;BME280;27023;42.680;23.132;2022-11-15T05:12:48;92532.19;;;3.44;100.00
12195;BME280;27023;42.680;23.132;2022-11-15T05:15:14;92516.66;;;3.39;100.00
12195;BME280;27023;42.680;23.132;2022-11-15T05:17:41;92530.66;;;3.43;100.00
12195;BME280;27023;42.680;23.132;2022-11-15T05:20:09;92524.56;;;3.48;100.00
12195;BME280;27023;42.680;23.132;2022-11-15T05:22:36;92522.03;;;3.57;100.00
12195;BME280;27023;42.680;23.132;2022-11-15T05:25:03;92531.03;;;3.50;100.00
12195;BME280;27023;42.680;23.132;2022-11-15T05:27:32;92519.81;;;3.64;100.00
12195;BME280;27023;42.680;23.132;2022-11-15T05:29:59;92518.09;;;3.73;100.00
12195;BME280;27023;42.680;23.132;2022-11-15T05:32:25;92514.91;;;3.62;100.00
12195;BME280;27023;42.680;23.132;2022-11-15T05:34:52;92522.31;;;3.69;100.00
12195;BME280;27023;42.680;23.132;2022-11-15T05:37:19;92519.63;;;3.60;100.00
12195;BME280;27023;42.680;23.132;2022-11-15T05:39:46;92520.00;;;3.67;100.00
12195;BME280;27023;42.680;23.132;2022-11-15T05:42:14;92523.66;;;3.94;100.00
12195;BME280;27023;42.680;23.132;2022-11-15T05:44:46;92525.66;;;4.33;100.00
12195;BME280;27023;42.680;23.132;2022-11-15T05:47:17;92519.63;;;4.46;100.00
12195;BME280;27023;42.680;23.132;2022-11-15T05:49:47;92529.00;;;4.69;100.00
12195;BME280;27023;42.680;23.132;2022-11-15T05:52:17;92534.19;;;4.92;100.00
12195;BME280;27023;42.680;23.132;2022-11-15T05:54:45;92534.56;;;4.99;100.00
12195;BME280;27023;42.680;23.132;2022-11-15T05:57:11;92541.41;;;5.17;100.00
12195;BME280;27023;42.680;23.132;2022-11-15T05:59:38;92543.84;;;5.14;100.00
12195;BME280;27023;42.680;23.132;2022-11-15T06:02:07;92544.31;;;4.85;100.00
12195;BME280;27023;42.680;23.132;2022-11-15T06:04:34;92550.09;;;5.04;100.00
12195;BME280;27023;42.680;23.132;2022-11-15T06:07:01;92541.34;;;5.08;100.00
12195;BME280;27023;42.680;23.132;2022-11-15T06:09:28;92545.69;;;5.13;100.00
12195;BME280;27023;42.680;23.132;2022-11-15T06:11:54;92540.94;;;4.84;100.00
12195;BME280;27023;42.680;23.132;2022-11-15T06:14:21;92553.81;;;4.58;100.00
12195;BME280;27023;42.680;23.132;2022-11-15T06:16:48;92546.69;;;4.50;100.00
12195;BME280;27023;42.680;23.132;2022-11-15T06:19:16;92539.94;;;4.49;100.00
12195;BME280;27023;42.680;23.132;2022-11-15T06:21:42;92532.50;;;4.06;100.00
12195;BME280;27023;42.680;23.132;2022-11-15T06:24:09;92534.81;;;4.44;100.00
12195;BME280;27023;42.680;23.132;2022-11-15T06:26:36;92540.03;;;4.66;100.00
12195;BME280;27023;42.680;23.132;2022-11-15T06:29:03;92535.41;;;4.86;100.00
12195;BME280;27023;42.680;23.132;2022-11-15T06:31:30;92537.34;;;5.02;100.00
12195;BME280;27023;42.680;23.132;2022-11-15T06:33:57;92539.22;;;4.79;100.00
12195;BME280;27023;42.680;23.132;2022-11-15T06:36:25;92539.31;;;4.97;100.00
12195;BME280;27023;42.680;23.132;2022-11-15T06:38:51;92535.19;;;4.73;100.00
12195;BME280;27023;42.680;23.132;2022-11-15T06:41:18;92532.88;;;5.03;100.00
12195;BME280;27023;42.680;23.132;2022-11-15T06:43:46;92532.38;;;4.92;100.00
12195;BME280;27023;42.680;23.132;2022-11-15T06:46:13;92537.47;;;5.28;100.00
12195;BME280;27023;42.680;23.132;2022-11-15T06:48:39;92537.03;;;5.35;100.00
12195;BME280;27023;42.680;23.132;2022-11-15T06:51:06;92535.69;;;5.46;100.00
12195;BME280;27023;42.680;23.132;2022-11-15T06:53:34;92535.44;;;5.56;100.00
12195;BME280;27023;42.680;23.132;2022-11-15T06:56:03;92530.00;;;5.13;100.00
12195;BME280;27023;42.680;23.132;2022-11-15T06:58:30;92530.00;;;5.13;100.00
12195;BME280;27023;42.680;23.132;2022-11-15T07:01:00;92532.09;;;4.49;100.00
12195;BME280;27023;42.680;23.132;2022-11-15T07:03:27;92523.13;;;4.41;100.00
12195;BME280;27023;42.680;23.132;2022-11-15T07:05:56;92526.47;;;4.20;100.00
12195;BME280;27023;42.680;23.132;2022-11-15T07:08:24;92521.38;;;4.51;100.00
12195;BME280;27023;42.680;23.132;2022-11-15T07:10:58;92516.78;;;4.78;100.00
12195;BME280;27023;42.680;23.132;2022-11-15T07:13:27;92523.06;;;5.08;100.00
12195;BME280;27023;42.680;23.132;2022-11-15T07:15:54;92525.03;;;5.34;100.00
12195;BME280;27023;42.680;23.132;2022-11-15T07:18:21;92528.78;;;5.50;100.00
12195;BME280;27023;42.680;23.132;2022-11-15T07:20:47;92528.34;;;5.57;100.00
12195;BME280;27023;42.680;23.132;2022-11-15T07:23:14;92534.22;;;5.62;100.00
12195;BME280;27023;42.680;23.132;2022-11-15T07:25:41;92531.47;;;5.67;100.00
12195;BME280;27023;42.680;23.132;2022-11-15T07:28:09;92533.06;;;5.37;100.00
12195;BME280;27023;42.680;23.132;2022-11-15T07:30:36;92523.81;;;5.31;100.00
12195;BME280;27023;42.680;23.132;2022-11-15T07:33:03;92529.97;;;5.35;100.00
12195;BME280;27023;42.680;23.132;2022-11-15T07:35:29;92526.09;;;5.81;100.00
12195;BME280;27023;42.680;23.132;2022-11-15T07:37:57;92525.56;;;6.01;100.00
12195;BME280;27023;42.680;23.132;2022-11-15T07:40:25;92530.53;;;6.20;100.00
12195;BME280;27023;42.680;23.132;2022-11-15T07:42:52;92532.53;;;6.32;100.00
12195;BME280;27023;42.680;23.132;2022-11-15T07:45:23;92533.06;;;5.94;100.00
12195;BME280;27023;42.680;23.132;2022-11-15T07:47:52;92539.31;;;5.76;100.00
12195;BME280;27023;42.680;23.132;2022-11-15T07:50:19;92531.06;;;5.91;100.00
12195;BME280;27023;42.680;23.132;2022-11-15T07:52:46;92535.00;;;6.20;100.00
12195;BME280;27023;42.680;23.132;2022-11-15T07:55:13;92536.22;;;6.40;100.00
12195;BME280;27023;42.680;23.132;2022-11-15T07:57:39;92531.59;;;6.45;100.00
12195;BME280;27023;42.680;23.132;2022-11-15T08:00:07;92525.75;;;6.57;100.00
12195;BME280;27023;42.680;23.132;2022-11-15T08:02:35;92533.59;;;6.74;100.00
12195;BME280;27023;42.680;23.132;2022-11-15T08:05:02;92533.44;;;6.79;100.00
12195;BME280;27023;42.680;23.132;2022-11-15T08:07:30;92526.34;;;6.88;100.00
12195;BME280;27023;42.680;23.132;2022-11-15T08:09:57;92519.25;;;6.89;100.00
12195;BME280;27023;42.680;23.132;2022-11-15T08:12:24;92520.47;;;7.00;100.00
12195;BME280;27023;42.680;23.132;2022-11-15T08:14:50;92517.63;;;7.14;100.00
12195;BME280;27023;42.680;23.132;2022-11-15T08:17:17;92515.44;;;7.24;100.00
12195;BME280;27023;42.680;23.132;2022-11-15T08:19:45;92509.38;;;7.41;100.00
12195;BME280;27023;42.680;23.132;2022-11-15T08:22:12;92506.41;;;7.51;100.00
12195;BME280;27023;42.680;23.132;2022-11-15T08:24:39;92511.94;;;7.58;100.00
12195;BME280;27023;42.680;23.132;2022-11-15T08:27:06;92507.09;;;7.69;100.00
12195;BME280;27023;42.680;23.132;2022-11-15T08:29:40;92515.00;;;7.60;100.00
12195;BME280;27023;42.680;23.132;2022-11-15T08:32:08;92513.16;;;7.90;100.00
12195;BME280;27023;42.680;23.132;2022-11-15T08:34:34;92509.19;;;8.05;100.00
12195;BME280;27023;42.680;23.132;2022-11-15T08:37:02;92513.03;;;8.08;100.00
12195;BME280;27023;42.680;23.132;2022-11-15T08:39:29;92510.88;;;8.10;100.00
12195;BME280;27023;42.680;23.132;2022-11-15T08:41:56;92501.25;;;8.14;100.00
12195;BME280;27023;42.680;23.132;2022-11-15T08:44:23;92506.38;;;8.10;100.00
12195;BME280;27023;42.680;23.132;2022-11-15T08:46:50;92495.59;;;7.82;100.00
12195;BME280;27023;42.680;23.132;2022-11-15T08:49:17;92494.28;;;6.83;100.00
12195;BME280;27023;42.680;23.132;2022-11-15T08:51:43;92503.25;;;7.28;100.00
12195;BME280;27023;42.680;23.132;2022-11-15T08:54:11;92498.19;;;7.61;100.00
12195;BME280;27023;42.680;23.132;2022-11-15T08:56:38;92493.53;;;7.67;100.00
12195;BME280;27023;42.680;23.132;2022-11-15T08:59:05;92493.16;;;7.77;100.00
12195;BME280;27023;42.680;23.132;2022-11-15T09:01:31;92485.75;;;7.79;100.00
12195;BME280;27023;42.680;23.132;2022-11-15T09:03:58;92489.41;;;7.57;100.00
12195;BME280;27023;42.680;23.132;2022-11-15T09:06:25;92470.63;;;7.76;100.00
12195;BME280;27023;42.680;23.132;2022-11-15T09:08:51;92486.66;;;8.04;100.00
12195;BME280;27023;42.680;23.132;2022-11-15T09:11:19;92485.84;;;7.62;100.00
12195;BME280;27023;42.680;23.132;2022-11-15T09:13:47;92477.75;;;7.76;100.00
12195;BME280;27023;42.680;23.132;2022-11-15T09:16:14;92469.53;;;7.77;100.00
12195;BME280;27023;42.680;23.132;2022-11-15T09:18:41;92463.78;;;7.63;100.00
12195;BME280;27023;42.680;23.132;2022-11-15T09:21:09;92458.09;;;8.03;100.00
12195;BME280;27023;42.680;23.132;2022-11-15T09:23:35;92459.22;;;8.43;100.00
12195;BME280;27023;42.680;23.132;2022-11-15T09:26:04;92455.44;;;8.32;100.00
12195;BME280;27023;42.680;23.132;2022-11-15T09:28:32;92453.53;;;8.41;100.00
12195;BME280;27023;42.680;23.132;2022-11-15T09:31:00;92457.78;;;8.67;100.00
12195;BME280;27023;42.680;23.132;2022-11-15T09:33:28;92457.38;;;8.89;100.00
12195;BME280;27023;42.680;23.132;2022-11-15T09:35:59;92457.22;;;9.06;100.00
12195;BME280;27023;42.680;23.132;2022-11-15T09:38:26;92451.09;;;9.02;100.00
12195;BME280;27023;42.680;23.132;2022-11-15T09:41:07;92443.44;;;9.21;100.00
12195;BME280;27023;42.680;23.132;2022-11-15T09:43:42;92444.19;;;9.10;100.00
12195;BME280;27023;42.680;23.132;2022-11-15T09:46:16;92438.44;;;8.83;100.00
12195;BME280;27023;42.680;23.132;2022-11-15T09:48:50;92439.28;;;9.33;100.00
12195;BME280;27023;42.680;23.132;2022-11-15T09:51:25;92430.06;;;9.02;100.00
12195;BME280;27023;42.680;23.132;2022-11-15T09:53:58;92432.16;;;9.45;100.00
12195;BME280;27023;42.680;23.132;2022-11-15T09:56:29;92432.69;;;9.63;100.00
12195;BME280;27023;42.680;23.132;2022-11-15T09:59:10;92424.25;;;9.82;100.00
12195;BME280;27023;42.680;23.132;2022-11-15T10:01:46;92425.25;;;9.16;100.00
12195;BME280;27023;42.680;23.132;2022-11-15T10:04:16;92421.31;;;9.35;100.00
12195;BME280;27023;42.680;23.132;2022-11-15T10:06:46;92421.41;;;9.38;100.00
12195;BME280;27023;42.680;23.132;2022-11-15T10:09:20;92415.38;;;9.38;100.00
12195;BME280;27023;42.680;23.132;2022-11-15T10:11:49;92407.91;;;9.52;100.00
12195;BME280;27023;42.680;23.132;2022-11-15T10:14:19;92416.63;;;8.83;100.00
12195;BME280;27023;42.680;23.132;2022-11-15T10:17:06;92407.06;;;9.36;100.00
12195;BME280;27023;42.680;23.132;2022-11-15T10:19:43;92405.50;;;9.47;100.00
12195;BME280;27023;42.680;23.132;2022-11-15T10:22:24;92403.97;;;9.46;100.00
12195;BME280;27023;42.680;23.132;2022-11-15T10:25:08;92414.72;;;9.53;100.00
12195;BME280;27023;42.680;23.132;2022-11-15T10:27:36;92399.25;;;9.51;100.00
12195;BME280;27023;42.680;23.132;2022-11-15T10:30:11;92397.56;;;9.96;100.00
12195;BME280;27023;42.680;23.132;2022-11-15T10:32:39;92388.31;;;10.02;100.00
12195;BME280;27023;42.680;23.132;2022-11-15T10:35:20;92391.69;;;10.14;100.00
12195;BME280;27023;42.680;23.132;2022-11-15T10:37:47;92381.84;;;10.39;100.00
12195;BME280;27023;42.680;23.132;2022-11-15T10:40:20;92373.66;;;10.57;100.00
12195;BME280;27023;42.680;23.132;2022-11-15T10:42:47;92373.00;;;10.91;100.00
12195;BME280;27023;42.680;23.132;2022-11-15T10:45:26;92363.84;;;11.17;100.00
12195;BME280;27023;42.680;23.132;2022-11-15T10:48:20;92380.06;;;11.34;100.00
12195;BME280;27023;42.680;23.132;2022-11-15T10:50:49;92370.28;;;11.35;100.00
12195;BME280;27023;42.680;23.132;2022-11-15T10:53:21;92368.00;;;11.68;100.00
12195;BME280;27023;42.680;23.132;2022-11-15T10:55:50;92361.97;;;12.03;100.00
12195;BME280;27023;42.680;23.132;2022-11-15T10:58:22;92363.06;;;11.83;100.00
12195;BME280;27023;42.680;23.132;2022-11-15T11:01:09;92348.34;;;11.66;100.00
12195;BME280;27023;42.680;23.132;2022-11-15T11:03:37;92357.13;;;11.54;100.00
12195;BME280;27023;42.680;23.132;2022-11-15T11:06:07;92350.78;;;11.39;100.00
12195;BME280;27023;42.680;23.132;2022-11-15T11:08:34;92353.09;;;11.41;100.00
12195;BME280;27023;42.680;23.132;2022-11-15T11:11:03;92346.44;;;11.47;100.00
12195;BME280;27023;42.680;23.132;2022-11-15T11:13:32;92351.28;;;11.45;100.00
12195;BME280;27023;42.680;23.132;2022-11-15T11:16:15;92349.19;;;11.35;100.00
12195;BME280;27023;42.680;23.132;2022-11-15T11:18:50;92342.44;;;11.72;100.00
12195;BME280;27023;42.680;23.132;2022-11-15T11:21:26;92334.78;;;11.67;100.00
12195;BME280;27023;42.680;23.132;2022-11-15T11:24:01;92339.75;;;11.18;100.00
12195;BME280;27023;42.680;23.132;2022-11-15T11:26:41;92329.88;;;10.99;100.00
12195;BME280;27023;42.680;23.132;2022-11-15T11:29:20;92328.94;;;10.76;100.00
12195;BME280;27023;42.680;23.132;2022-11-15T11:31:54;92315.13;;;11.14;100.00
12195;BME280;27023;42.680;23.132;2022-11-15T11:34:34;92306.41;;;11.80;100.00
12195;BME280;27023;42.680;23.132;2022-11-15T11:37:11;92300.59;;;11.55;100.00
12195;BME280;27023;42.680;23.132;2022-11-15T11:39:48;92299.53;;;11.40;100.00
12195;BME280;27023;42.680;23.132;2022-11-15T11:42:26;92305.13;;;11.20;100.00
12195;BME280;27023;42.680;23.132;2022-11-15T11:45:02;92295.06;;;11.09;100.00
12195;BME280;27023;42.680;23.132;2022-11-15T11:47:38;92286.56;;;11.00;100.00
12195;BME280;27023;42.680;23.132;2022-11-15T11:50:12;92285.56;;;10.58;100.00
12195;BME280;27023;42.680;23.132;2022-11-15T11:52:45;92279.00;;;10.99;100.00
12195;BME280;27023;42.680;23.132;2022-11-15T11:55:16;92279.56;;;11.59;100.00
12195;BME280;27023;42.680;23.132;2022-11-15T11:57:48;92277.25;;;11.76;100.00
12195;BME280;27023;42.680;23.132;2022-11-15T12:00:19;92272.81;;;11.61;100.00
12195;BME280;27023;42.680;23.132;2022-11-15T12:02:55;92272.09;;;11.45;100.00
12195;BME280;27023;42.680;23.132;2022-11-15T12:05:34;92273.06;;;11.37;100.00
12195;BME280;27023;42.680;23.132;2022-11-15T12:08:09;92266.94;;;11.33;100.00
12195;BME280;27023;42.680;23.132;2022-11-15T12:10:45;92258.28;;;11.32;100.00
12195;BME280;27023;42.680;23.132;2022-11-15T12:13:16;92250.84;;;11.38;100.00
12195;BME280;27023;42.680;23.132;2022-11-15T12:15:50;92250.03;;;11.53;100.00
12195;BME280;27023;42.680;23.132;2022-11-15T12:18:21;92248.34;;;11.64;100.00
12195;BME280;27023;42.680;23.132;2022-11-15T12:20:52;92235.50;;;11.63;100.00
12195;BME280;27023;42.680;23.132;2022-11-15T12:23:25;92239.31;;;11.65;100.00
12195;BME280;27023;42.680;23.132;2022-11-15T12:25:57;92239.13;;;11.55;100.00
12195;BME280;27023;42.680;23.132;2022-11-15T12:28:35;92239.19;;;11.39;100.00
12195;BME280;27023;42.680;23.132;2022-11-15T12:31:11;92232.50;;;11.26;100.00
12195;BME280;27023;42.680;23.132;2022-11-15T12:33:42;92234.22;;;11.18;100.00
12195;BME280;27023;42.680;23.132;2022-11-15T12:36:12;92236.59;;;11.07;100.00
12195;BME280;27023;42.680;23.132;2022-11-15T12:38:57;92241.22;;;10.95;100.00
12195;BME280;27023;42.680;23.132;2022-11-15T12:41:25;92239.47;;;10.83;100.00
12195;BME280;27023;42.680;23.132;2022-11-15T12:43:53;92236.09;;;10.67;100.00
12195;BME280;27023;42.680;23.132;2022-11-15T12:46:22;92229.88;;;10.59;100.00
12195;BME280;27023;42.680;23.132;2022-11-15T12:48:54;92228.69;;;10.57;100.00
12195;BME280;27023;42.680;23.132;2022-11-15T12:57:28;92218.22;;;9.69;100.00
12195;BME280;27023;42.680;23.132;2022-11-15T12:59:56;92212.06;;;10.09;100.00
12195;BME280;27023;42.680;23.132;2022-11-15T13:02:28;92211.34;;;10.24;100.00
12195;BME280;27023;42.680;23.132;2022-11-15T13:05:49;92208.28;;;10.38;100.00
12195;BME280;27023;42.680;23.132;2022-11-15T13:08:07;92210.56;;;10.24;100.00
12195;BME280;27023;42.680;23.132;2022-11-15T13:10:34;92197.88;;;9.98;100.00
12195;BME280;27023;42.680;23.132;2022-11-15T13:13:02;92194.91;;;9.99;100.00